Hauptseite
METAR-TAF:

METAR-TAF

Flughäfen :

Flughafen Antananarivo

Antananarivo, Madagaskar

Breite: 18-48S, Länge: 047-29E, Höhe: 1279 m

Beobachtung

Neuester Wetterbericht von vor 5 Minuten, um 23:00 UTC
Wind 3 kt aus Südost
Temperatur 11°C
Luftfeuchtigkeit 94%
Luftdruck 1022 hPa
Sichtweite 10 km oder mehr
Leicht bewölkt in der Höhe von 1700 ft

METAR: FMMI 232300Z 13003KT 9999 FEW017 11/10 Q1022 NOSIG

Zeit: 02:05 (23:05 UTC)

Prognose

Neuester Wetterbericht von vor 6 Stunden und 5 Minuten, um 17:00 UTC
Gültige Prognose vom 23 um 18 UTC bis 24 um 24 UTC
Wind 7 kt aus Ost/Südost
Sichtweite 10 km oder mehr
Aufgelockert bewölkt in der Höhe von 1700 ft
Wahrscheinlichkeit 30%
vom 24 um 02 UTC bis 24 um 06 UTC
Sichtweite: 1500 m
Durchbrochene Bewölkung in der Höhe von 600 ft
feuchter Dunst

TAF: FMMI 231700Z 2318/2424 12007KT 9999 SCT017 PROB30 2402/2406 1500 BR BKN006

Wetterbeobachtungen und Prognosen von mehr als 4000 Flughäfen (METAR und TAF Bericht).

Die verfügbaren Stationen werden durch gelbe und rote Markierungen auf der Karte dargestellt.

Führen Sie die Maus auf sie, um den Namen der Station zu sehen.

Darauf klicken, um die Beobachtung von Wetterbeobachtungen und Prognosen zu sehen.

Um die Karte zu ändern : klicken Sie auf den grünen Tasten mit einem schwarzen Kreuz Zum Vergrößern, auf den grünen Button mit einem Gedankenstrich zu verkleinern, oder auf die grünen Pfeile für benachbarte Karten.


METAR-TAF: